Quinsam — VY6800 — position and weather

sailwx.info

Track history (hours):
 
Tides and Currents Weather Stations Pressure Air Temp Water Temp Dewpoint Dewpoint Depression Visibility Wind Speed Wind Dir Waves Ship Positions

Quinsam

Last reported at 2014-Dec-19 14:33 UTC. Time now 2014-Dec-19 15:14 UTC.
Position N 49°11' W 123°52'.

Length 88 m; draft 1.5 m.

Type: Ship. MMSI: 316001266.

Date/timePositionNaut miles runAvg speedWind from/ knotsBaromVisibWave heightAir tempDewpointWater temp
2014-Dec-19 14:33N 49°11' W 123°52'0 0.0
2014-Dec-19 07:19N 49°11' W 123°53'1 0.5
2014-Dec-19 06:19N 49°11' W 123°54'0 0.2
2014-Dec-19 04:32N 49°10' W 123°54'1 0.6
2014-Dec-19 03:32N 49°11' W 123°53'0 0.1
2014-Dec-19 02:27N 49°11' W 123°53'0 0.2
2014-Dec-19 01:19N 49°11' W 123°53'0 0.1
2014-Dec-19 00:33N 49°11' W 123°53'2 1.6
2014-Dec-18 23:25N 49°10' W 123°55'2 1.6
2014-Dec-18 22:07N 49°11' W 123°52'2 3.1
2014-Dec-18 21:31N 49°10' W 123°55'0 0.3
2014-Dec-18 20:21N 49°10' W 123°56'1 0.7
2014-Dec-18 19:33N 49°10' W 123°55'1 0.7
2014-Dec-18 18:32N 49°10' W 123°56'0 0.0
2014-Dec-18 17:20N 49°10' W 123°56'2 1.9
2014-Dec-18 16:32N 49°11' W 123°54'1 0.6
2014-Dec-18 15:10N 49°10' W 123°55'1 1.5
2014-Dec-18 14:14N 49°11' W 123°53'1 0.1
2014-Dec-18 07:32N 49°11' W 123°52'0 0.0
2014-Dec-18 05:30N 49°11' W 123°52'2 2.0
2014-Dec-18 04:33N 49°10' W 123°54'0 0.1
2014-Dec-18 03:32N 49°10' W 123°54'1 1.3
2014-Dec-18 02:33N 49°11' W 123°53'0 0.1
2014-Dec-18 01:26N 49°11' W 123°52'0 0.5
2014-Dec-18 00:29N 49°11' W 123°52'3 3.0
2014-Dec-17 23:33N 49°10' W 123°56'3 2.2
2014-Dec-17 22:15N 49°11' W 123°52'3 4.0
2014-Dec-17 21:33N 49°10' W 123°56'0 0.0
2014-Dec-17 20:20N 49°10' W 123°56'2 2.4
2014-Dec-17 19:33N 49°11' W 123°53'2 1.7
2014-Dec-17 18:28N 49°10' W 123°56'0 0.5
2014-Dec-17 17:33N 49°10' W 123°55'2 1.7
2014-Dec-17 16:29N 49°11' W 123°53'1 0.6
2014-Dec-17 15:23N 49°11' W 123°52'1 0.7
2014-Dec-17 14:33N 49°11' W 123°52'0 0.0
2014-Dec-17 13:33N 49°11' W 123°52'1 0.2
2014-Dec-17 10:12N 49°11' W 123°52'0 0.0
2014-Dec-17 09:24N 49°11' W 123°52'0 0.0
2014-Dec-17 07:28N 49°11' W 123°52'0 0.0
2014-Dec-17 06:32N 49°11' W 123°52'0 0.0
2014-Dec-17 05:33N 49°11' W 123°52'1 1.4
2014-Dec-17 04:33N 49°10' W 123°54'1 0.5
2014-Dec-17 03:33N 49°11' W 123°53'0 0.5
2014-Dec-17 02:33N 49°11' W 123°52'0 0.4
2014-Dec-17 01:32N 49°11' W 123°52'1 0.9
2014-Dec-17 00:33N 49°11' W 123°53'2 2.0
2014-Dec-16 23:31N 49°10' W 123°56'3 2.9
2014-Dec-16 22:31N 49°11' W 123°52'2 2.3
2014-Dec-16 21:34N 49°10' W 123°55'1 0.6
2014-Dec-16 20:28N 49°10' W 123°56'1 1.1
2014-Dec-16 19:33N 49°10' W 123°54'1 0.9
2014-Dec-16 18:29N 49°10' W 123°56'0 0.3
2014-Dec-16 17:33N 49°10' W 123°55'2 2.1
2014-Dec-16 16:31N 49°11' W 123°52'0 0.4
2014-Dec-16 15:22N 49°11' W 123°52'1 0.6
2014-Dec-16 14:34N 49°11' W 123°52'0 0.2
2014-Dec-16 13:33N 49°11' W 123°52'0 0.1
2014-Dec-16 07:26N 49°11' W 123°52'0 0.0
2014-Dec-16 06:33N 49°11' W 123°52'0 0.0
2014-Dec-16 05:25N 49°11' W 123°52'1 1.6
2014-Dec-16 04:32N 49°10' W 123°54'0 0.2
2014-Dec-16 03:32N 49°10' W 123°53'1 1.0
2014-Dec-16 02:33N 49°11' W 123°52'3 1.9
2014-Dec-16 01:10N 49°10' W 123°56'0 0.0
2014-Dec-15 23:31N 49°10' W 123°56'2 1.7
2014-Dec-15 22:04N 49°11' W 123°52'2 4.7
2014-Dec-15 21:33N 49°10' W 123°56'0 0.0
2014-Dec-15 20:28N 49°10' W 123°56'2 1.6
2014-Dec-15 19:33N 49°10' W 123°54'2 1.5
2014-Dec-15 18:33N 49°10' W 123°56'0 0.5
2014-Dec-15 17:34N 49°10' W 123°55'2 1.9
2014-Dec-15 16:33N 49°11' W 123°52'1 0.5
2014-Dec-15 15:27N 49°11' W 123°52'0 0.1
2014-Dec-15 14:32N 49°11' W 123°52'0 0.4
2014-Dec-15 13:33N 49°11' W 123°52'2 0.3
2014-Dec-15 06:33N 49°10' W 123°55'3 2.5
2014-Dec-15 05:31N 49°11' W 123°52'1 1.4
2014-Dec-15 04:34N 49°10' W 123°54'0 0.2
2014-Dec-15 03:33N 49°10' W 123°53'1 1.1
2014-Dec-15 02:32N 49°11' W 123°52'0 0.3
2014-Dec-15 01:17N 49°11' W 123°52'1 0.7
2014-Dec-15 00:32N 49°11' W 123°53'2 2.0
2014-Dec-14 23:33N 49°10' W 123°56'3 2.5
2014-Dec-14 22:23N 49°11' W 123°52'2 2.0
2014-Dec-14 21:33N 49°10' W 123°54'1 1.4
2014-Dec-14 20:33N 49°11' W 123°52'0 0.3
2014-Dec-14 19:33N 49°11' W 123°52'3 2.8
2014-Dec-14 18:31N 49°10' W 123°56'3 2.6
2014-Dec-14 17:32N 49°11' W 123°52'0 0.4
2014-Dec-14 16:32N 49°11' W 123°52'3 2.0
2014-Dec-14 15:05N 49°10' W 123°56'3 5.0
2014-Dec-14 14:31N 49°11' W 123°52'0 0.0
2014-Dec-14 12:09N 49°11' W 123°52'0 0.0
2014-Dec-14 07:28N 49°11' W 123°52'0 0.2
2014-Dec-14 06:26N 49°11' W 123°52'0 0.2
2014-Dec-14 05:33N 49°11' W 123°52'2 1.6
2014-Dec-14 04:33N 49°10' W 123°54'0 0.4
2014-Dec-14 03:32N 49°10' W 123°53'1 1.0
2014-Dec-14 02:31N 49°11' W 123°52'0 0.2
2014-Dec-14 01:29N 49°11' W 123°52'1 0.5
2014-Dec-14 00:32N 49°11' W 123°52'2 2.4
2014-Dec-13 23:32N 49°10' W 123°56'3 2.4
2014-Dec-13 22:20N 49°11' W 123°52'2 2.6
2014-Dec-13 21:33N 49°10' W 123°55'1 1.2
2014-Dec-13 20:33N 49°11' W 123°53'1 0.9
2014-Dec-13 19:30N 49°11' W 123°52'3 2.5
2014-Dec-13 18:20N 49°10' W 123°56'2 3.1
2014-Dec-13 17:33N 49°11' W 123°52'0 0.5
2014-Dec-13 16:30N 49°11' W 123°52'0 0.0
2014-Dec-13 15:33N 49°11' W 123°52'0 0.0
2014-Dec-13 14:31N 49°11' W 123°52'0 0.0
2014-Dec-13 13:25N 49°11' W 123°52'0 0.0
2014-Dec-13 12:31N 49°11' W 123°52'0 0.0
2014-Dec-13 11:13N 49°11' W 123°52'0 0.0
2014-Dec-13 10:19N 49°11' W 123°52'0 0.0
2014-Dec-13 09:31N 49°11' W 123°52'0 0.0
2014-Dec-13 08:25N 49°11' W 123°52'0 0.0
2014-Dec-13 07:32N 49°11' W 123°52'0 0.0
2014-Dec-13 06:33N 49°11' W 123°52'0 0.0
2014-Dec-13 05:32N 49°11' W 123°52'2 1.6
2014-Dec-13 04:33N 49°10' W 123°54'1 0.5
2014-Dec-13 03:34N 49°11' W 123°53'1 0.8
2014-Dec-13 02:30N 49°11' W 123°52'0 0.0
2014-Dec-13 01:19N 49°11' W 123°52'1 1.5
2014-Dec-13 00:33N 49°10' W 123°54'2 1.5
2014-Dec-12 23:30N 49°10' W 123°56'3 2.4
2014-Dec-12 22:18N 49°11' W 123°52'3 3.7
2014-Dec-12 21:33N 49°10' W 123°56'0 0.0
2014-Dec-12 20:27N 49°10' W 123°56'1 1.6
2014-Dec-12 19:32N 49°10' W 123°54'1 1.4
2014-Dec-12 18:27N 49°10' W 123°56'0 0.2
2014-Dec-12 17:33N 49°10' W 123°56'2 1.9
2014-Dec-12 16:30N 49°11' W 123°53'1 0.8
2014-Dec-12 15:33N 49°11' W 123°52'0 0.0
2014-Dec-12 14:27N 49°11' W 123°52'0 0.3
2014-Dec-12 13:33N 49°11' W 123°52'0 0.3
2014-Dec-12 12:25N 49°11' W 123°52'0 0.0
2014-Dec-12 11:24N 49°11' W 123°52'0 0.0
2014-Dec-12 10:11N 49°11' W 123°52'0 0.0
2014-Dec-12 09:18N 49°11' W 123°52'0 0.0
2014-Dec-12 08:17N 49°11' W 123°52'1 1.2
2014-Dec-12 07:18N 49°10' W 123°53'1 0.8
2014-Dec-12 06:25N 49°11' W 123°52'0 0.5
2014-Dec-12 05:29N 49°11' W 123°52'2 2.0
2014-Dec-12 04:33N 49°10' W 123°54'0 0.4
2014-Dec-12 03:33N 49°10' W 123°54'0 0.4
2014-Dec-12 02:33N 49°11' W 123°53'0 0.3
2014-Dec-12 01:26N 49°11' W 123°53'1 0.7
2014-Dec-12 00:28N 49°11' W 123°52'3 3.1
2014-Dec-11 23:32N 49°10' W 123°56'2 1.7
2014-Dec-11 22:08N 49°11' W 123°52'2 3.5
2014-Dec-11 21:33N 49°10' W 123°55'0 0.1
2014-Dec-11 20:23N 49°10' W 123°55'0 0.2
2014-Dec-11 19:33N 49°10' W 123°55'0 0.3
2014-Dec-11 18:33N 49°10' W 123°56'0 0.0
2014-Dec-11 17:33N 49°10' W 123°56'2 1.9
2014-Dec-11 16:29N 49°11' W 123°53'0 0.2
2014-Dec-11 15:19N 49°11' W 123°53'0 0.4
2014-Dec-11 14:17N 49°11' W 123°52'0 0.4
2014-Dec-11 13:33N 49°11' W 123°52'1 0.5
2014-Dec-11 12:20N 49°11' W 123°52'0 0.1
2014-Dec-11 07:32N 49°11' W 123°52'1 0.3
2014-Dec-11 04:33N 49°11' W 123°54'0 0.2
2014-Dec-11 03:33N 49°11' W 123°53'0 0.2
2014-Dec-11 02:23N 49°11' W 123°53'0 0.4
2014-Dec-11 01:17N 49°11' W 123°52'1 1.2
2014-Dec-11 00:34N 49°10' W 123°54'2 1.5
2014-Dec-10 23:30N 49°10' W 123°56'0 0.0
2014-Dec-10 21:32N 49°10' W 123°56'0 0.0
2014-Dec-10 20:19N 49°10' W 123°56'1 1.4
2014-Dec-10 19:32N 49°10' W 123°54'1 1.1
2014-Dec-10 18:30N 49°10' W 123°56'0 0.0
2014-Dec-10 17:33N 49°10' W 123°56'2 1.9
2014-Dec-10 16:31N 49°11' W 123°53'1 0.9
2014-Dec-10 15:26N 49°11' W 123°52'0 0.0
2014-Dec-10 14:24N 49°11' W 123°52'0 0.0
2014-Dec-10 07:26N 49°11' W 123°52'1 0.7
2014-Dec-10 06:22N 49°11' W 123°53'1 0.9
2014-Dec-10 05:27N 49°11' W 123°52'1 1.0
2014-Dec-10 04:33N 49°11' W 123°53'0 0.2
2014-Dec-10 03:33N 49°11' W 123°53'1 0.7
2014-Dec-10 02:27N 49°11' W 123°52'0 0.3
2014-Dec-10 01:14N 49°11' W 123°53'0 0.6
2014-Dec-10 00:31N 49°10' W 123°53'2 1.9
2014-Dec-09 23:32N 49°10' W 123°56'0 0.0
2014-Dec-09 21:30N 49°10' W 123°56'0 0.0
2014-Dec-09 20:30N 49°10' W 123°56'2 1.5
2014-Dec-09 19:32N 49°10' W 123°54'1 0.7
2014-Dec-09 18:15N 49°11' W 123°52'1 0.9
2014-Dec-09 17:33N 49°10' W 123°53'2 1.4
2014-Dec-09 16:20N 49°10' W 123°56'2 2.6
2014-Dec-09 15:33N 49°11' W 123°53'  
Track history (hours):
 
Tides and Currents Weather Stations Pressure Air Temp Water Temp Dewpoint Dewpoint Depression Visibility Wind Speed Wind Dir Waves Ship Positions

Quinsam

Last reported at 2014-Dec-19 14:33 UTC. Time now 2014-Dec-19 15:14 UTC.
Position N 49°11' W 123°52'.

Length 88 m; draft 1.5 m.

Type: Ship. MMSI: 316001266.

Date/timePositionNaut miles runAvg speedWind from/ knotsBaromVisibWave heightAir tempDewpointWater temp
2014-Dec-19 14:33N 49°11' W 123°52'0 0.0
2014-Dec-19 07:19N 49°11' W 123°53'1 0.5
2014-Dec-19 06:19N 49°11' W 123°54'0 0.2
2014-Dec-19 04:32N 49°10' W 123°54'1 0.6
2014-Dec-19 03:32N 49°11' W 123°53'0 0.1
2014-Dec-19 02:27N 49°11' W 123°53'0 0.2
2014-Dec-19 01:19N 49°11' W 123°53'0 0.1
2014-Dec-19 00:33N 49°11' W 123°53'2 1.6
2014-Dec-18 23:25N 49°10' W 123°55'2 1.6
2014-Dec-18 22:07N 49°11' W 123°52'2 3.1
2014-Dec-18 21:31N 49°10' W 123°55'0 0.3
2014-Dec-18 20:21N 49°10' W 123°56'1 0.7
2014-Dec-18 19:33N 49°10' W 123°55'1 0.7
2014-Dec-18 18:32N 49°10' W 123°56'0 0.0
2014-Dec-18 17:20N 49°10' W 123°56'2 1.9
2014-Dec-18 16:32N 49°11' W 123°54'1 0.6
2014-Dec-18 15:10N 49°10' W 123°55'1 1.5
2014-Dec-18 14:14N 49°11' W 123°53'1 0.1
2014-Dec-18 07:32N 49°11' W 123°52'0 0.0
2014-Dec-18 05:30N 49°11' W 123°52'2 2.0
2014-Dec-18 04:33N 49°10' W 123°54'0 0.1
2014-Dec-18 03:32N 49°10' W 123°54'1 1.3
2014-Dec-18 02:33N 49°11' W 123°53'0 0.1
2014-Dec-18 01:26N 49°11' W 123°52'0 0.5
2014-Dec-18 00:29N 49°11' W 123°52'3 3.0
2014-Dec-17 23:33N 49°10' W 123°56'3 2.2
2014-Dec-17 22:15N 49°11' W 123°52'3 4.0
2014-Dec-17 21:33N 49°10' W 123°56'0 0.0
2014-Dec-17 20:20N 49°10' W 123°56'2 2.4
2014-Dec-17 19:33N 49°11' W 123°53'2 1.7
2014-Dec-17 18:28N 49°10' W 123°56'0 0.5
2014-Dec-17 17:33N 49°10' W 123°55'2 1.7
2014-Dec-17 16:29N 49°11' W 123°53'1 0.6
2014-Dec-17 15:23N 49°11' W 123°52'1 0.7
2014-Dec-17 14:33N 49°11' W 123°52'0 0.0
2014-Dec-17 13:33N 49°11' W 123°52'1 0.2
2014-Dec-17 10:12N 49°11' W 123°52'0 0.0
2014-Dec-17 09:24N 49°11' W 123°52'0 0.0
2014-Dec-17 07:28N 49°11' W 123°52'0 0.0
2014-Dec-17 06:32N 49°11' W 123°52'0 0.0
2014-Dec-17 05:33N 49°11' W 123°52'1 1.4
2014-Dec-17 04:33N 49°10' W 123°54'1 0.5
2014-Dec-17 03:33N 49°11' W 123°53'0 0.5
2014-Dec-17 02:33N 49°11' W 123°52'0 0.4
2014-Dec-17 01:32N 49°11' W 123°52'1 0.9
2014-Dec-17 00:33N 49°11' W 123°53'2 2.0
2014-Dec-16 23:31N 49°10' W 123°56'3 2.9
2014-Dec-16 22:31N 49°11' W 123°52'2 2.3
2014-Dec-16 21:34N 49°10' W 123°55'1 0.6
2014-Dec-16 20:28N 49°10' W 123°56'1 1.1
2014-Dec-16 19:33N 49°10' W 123°54'1 0.9
2014-Dec-16 18:29N 49°10' W 123°56'0 0.3
2014-Dec-16 17:33N 49°10' W 123°55'2 2.1
2014-Dec-16 16:31N 49°11' W 123°52'0 0.4
2014-Dec-16 15:22N 49°11' W 123°52'1 0.6
2014-Dec-16 14:34N 49°11' W 123°52'0 0.2
2014-Dec-16 13:33N 49°11' W 123°52'0 0.1
2014-Dec-16 07:26N 49°11' W 123°52'0 0.0
2014-Dec-16 06:33N 49°11' W 123°52'0 0.0
2014-Dec-16 05:25N 49°11' W 123°52'1 1.6
2014-Dec-16 04:32N 49°10' W 123°54'0 0.2
2014-Dec-16 03:32N 49°10' W 123°53'1 1.0
2014-Dec-16 02:33N 49°11' W 123°52'3 1.9
2014-Dec-16 01:10N 49°10' W 123°56'0 0.0
2014-Dec-15 23:31N 49°10' W 123°56'2 1.7
2014-Dec-15 22:04N 49°11' W 123°52'2 4.7
2014-Dec-15 21:33N 49°10' W 123°56'0 0.0
2014-Dec-15 20:28N 49°10' W 123°56'2 1.6
2014-Dec-15 19:33N 49°10' W 123°54'2 1.5
2014-Dec-15 18:33N 49°10' W 123°56'0 0.5
2014-Dec-15 17:34N 49°10' W 123°55'2 1.9
2014-Dec-15 16:33N 49°11' W 123°52'1 0.5
2014-Dec-15 15:27N 49°11' W 123°52'0 0.1
2014-Dec-15 14:32N 49°11' W 123°52'0 0.4
2014-Dec-15 13:33N 49°11' W 123°52'2 0.3
2014-Dec-15 06:33N 49°10' W 123°55'3 2.5
2014-Dec-15 05:31N 49°11' W 123°52'1 1.4
2014-Dec-15 04:34N 49°10' W 123°54'0 0.2
2014-Dec-15 03:33N 49°10' W 123°53'1 1.1
2014-Dec-15 02:32N 49°11' W 123°52'0 0.3
2014-Dec-15 01:17N 49°11' W 123°52'1 0.7
2014-Dec-15 00:32N 49°11' W 123°53'2 2.0
2014-Dec-14 23:33N 49°10' W 123°56'3 2.5
2014-Dec-14 22:23N 49°11' W 123°52'2 2.0
2014-Dec-14 21:33N 49°10' W 123°54'1 1.4
2014-Dec-14 20:33N 49°11' W 123°52'0 0.3
2014-Dec-14 19:33N 49°11' W 123°52'3 2.8
2014-Dec-14 18:31N 49°10' W 123°56'3 2.6
2014-Dec-14 17:32N 49°11' W 123°52'0 0.4
2014-Dec-14 16:32N 49°11' W 123°52'3 2.0
2014-Dec-14 15:05N 49°10' W 123°56'3 5.0
2014-Dec-14 14:31N 49°11' W 123°52'0 0.0
2014-Dec-14 12:09N 49°11' W 123°52'0 0.0
2014-Dec-14 07:28N 49°11' W 123°52'0 0.2
2014-Dec-14 06:26N 49°11' W 123°52'0 0.2
2014-Dec-14 05:33N 49°11' W 123°52'2 1.6
2014-Dec-14 04:33N 49°10' W 123°54'0 0.4
2014-Dec-14 03:32N 49°10' W 123°53'1 1.0
2014-Dec-14 02:31N 49°11' W 123°52'0 0.2
2014-Dec-14 01:29N 49°11' W 123°52'1 0.5
2014-Dec-14 00:32N 49°11' W 123°52'2 2.4
2014-Dec-13 23:32N 49°10' W 123°56'3 2.4
2014-Dec-13 22:20N 49°11' W 123°52'2 2.6
2014-Dec-13 21:33N 49°10' W 123°55'1 1.2
2014-Dec-13 20:33N 49°11' W 123°53'1 0.9
2014-Dec-13 19:30N 49°11' W 123°52'3 2.5
2014-Dec-13 18:20N 49°10' W 123°56'2 3.1
2014-Dec-13 17:33N 49°11' W 123°52'0 0.5
2014-Dec-13 16:30N 49°11' W 123°52'0 0.0
2014-Dec-13 15:33N 49°11' W 123°52'0 0.0
2014-Dec-13 14:31N 49°11' W 123°52'0 0.0
2014-Dec-13 13:25N 49°11' W 123°52'0 0.0
2014-Dec-13 12:31N 49°11' W 123°52'0 0.0
2014-Dec-13 11:13N 49°11' W 123°52'0 0.0
2014-Dec-13 10:19N 49°11' W 123°52'0 0.0
2014-Dec-13 09:31N 49°11' W 123°52'0 0.0
2014-Dec-13 08:25N 49°11' W 123°52'0 0.0
2014-Dec-13 07:32N 49°11' W 123°52'0 0.0
2014-Dec-13 06:33N 49°11' W 123°52'0 0.0
2014-Dec-13 05:32N 49°11' W 123°52'2 1.6
2014-Dec-13 04:33N 49°10' W 123°54'1 0.5
2014-Dec-13 03:34N 49°11' W 123°53'1 0.8
2014-Dec-13 02:30N 49°11' W 123°52'0 0.0
2014-Dec-13 01:19N 49°11' W 123°52'1 1.5
2014-Dec-13 00:33N 49°10' W 123°54'2 1.5
2014-Dec-12 23:30N 49°10' W 123°56'3 2.4
2014-Dec-12 22:18N 49°11' W 123°52'3 3.7
2014-Dec-12 21:33N 49°10' W 123°56'0 0.0
2014-Dec-12 20:27N 49°10' W 123°56'1 1.6
2014-Dec-12 19:32N 49°10' W 123°54'1 1.4
2014-Dec-12 18:27N 49°10' W 123°56'0 0.2
2014-Dec-12 17:33N 49°10' W 123°56'2 1.9
2014-Dec-12 16:30N 49°11' W 123°53'1 0.8
2014-Dec-12 15:33N 49°11' W 123°52'0 0.0
2014-Dec-12 14:27N 49°11' W 123°52'0 0.3
2014-Dec-12 13:33N 49°11' W 123°52'0 0.3
2014-Dec-12 12:25N 49°11' W 123°52'0 0.0
2014-Dec-12 11:24N 49°11' W 123°52'0 0.0
2014-Dec-12 10:11N 49°11' W 123°52'0 0.0
2014-Dec-12 09:18N 49°11' W 123°52'0 0.0
2014-Dec-12 08:17N 49°11' W 123°52'1 1.2
2014-Dec-12 07:18N 49°10' W 123°53'1 0.8
2014-Dec-12 06:25N 49°11' W 123°52'0 0.5
2014-Dec-12 05:29N 49°11' W 123°52'2 2.0
2014-Dec-12 04:33N 49°10' W 123°54'0 0.4
2014-Dec-12 03:33N 49°10' W 123°54'0 0.4
2014-Dec-12 02:33N 49°11' W 123°53'0 0.3
2014-Dec-12 01:26N 49°11' W 123°53'1 0.7
2014-Dec-12 00:28N 49°11' W 123°52'3 3.1
2014-Dec-11 23:32N 49°10' W 123°56'2 1.7
2014-Dec-11 22:08N 49°11' W 123°52'2 3.5
2014-Dec-11 21:33N 49°10' W 123°55'0 0.1
2014-Dec-11 20:23N 49°10' W 123°55'0 0.2
2014-Dec-11 19:33N 49°10' W 123°55'0 0.3
2014-Dec-11 18:33N 49°10' W 123°56'0 0.0
2014-Dec-11 17:33N 49°10' W 123°56'2 1.9
2014-Dec-11 16:29N 49°11' W 123°53'0 0.2
2014-Dec-11 15:19N 49°11' W 123°53'0 0.4
2014-Dec-11 14:17N 49°11' W 123°52'0 0.4
2014-Dec-11 13:33N 49°11' W 123°52'1 0.5
2014-Dec-11 12:20N 49°11' W 123°52'0 0.1
2014-Dec-11 07:32N 49°11' W 123°52'1 0.3
2014-Dec-11 04:33N 49°11' W 123°54'0 0.2
2014-Dec-11 03:33N 49°11' W 123°53'0 0.2
2014-Dec-11 02:23N 49°11' W 123°53'0 0.4
2014-Dec-11 01:17N 49°11' W 123°52'1 1.2
2014-Dec-11 00:34N 49°10' W 123°54'2 1.5
2014-Dec-10 23:30N 49°10' W 123°56'0 0.0
2014-Dec-10 21:32N 49°10' W 123°56'0 0.0
2014-Dec-10 20:19N 49°10' W 123°56'1 1.4
2014-Dec-10 19:32N 49°10' W 123°54'1 1.1
2014-Dec-10 18:30N 49°10' W 123°56'0 0.0
2014-Dec-10 17:33N 49°10' W 123°56'2 1.9
2014-Dec-10 16:31N 49°11' W 123°53'1 0.9
2014-Dec-10 15:26N 49°11' W 123°52'0 0.0
2014-Dec-10 14:24N 49°11' W 123°52'0 0.0
2014-Dec-10 07:26N 49°11' W 123°52'1 0.7
2014-Dec-10 06:22N 49°11' W 123°53'1 0.9
2014-Dec-10 05:27N 49°11' W 123°52'1 1.0
2014-Dec-10 04:33N 49°11' W 123°53'0 0.2
2014-Dec-10 03:33N 49°11' W 123°53'1 0.7
2014-Dec-10 02:27N 49°11' W 123°52'0 0.3
2014-Dec-10 01:14N 49°11' W 123°53'0 0.6
2014-Dec-10 00:31N 49°10' W 123°53'2 1.9
2014-Dec-09 23:32N 49°10' W 123°56'0 0.0
2014-Dec-09 21:30N 49°10' W 123°56'0 0.0
2014-Dec-09 20:30N 49°10' W 123°56'2 1.5
2014-Dec-09 19:32N 49°10' W 123°54'1 0.7
2014-Dec-09 18:15N 49°11' W 123°52'1 0.9
2014-Dec-09 17:33N 49°10' W 123°53'2 1.4
2014-Dec-09 16:20N 49°10' W 123°56'2 2.6
2014-Dec-09 15:33N 49°11' W 123°53'  

Dump ship's entire track history